createdAt,value
2023-03-16T00:03:41.839Z,12.23
2023-03-16T00:10:27.553Z,8.88
2023-03-16T00:17:19.852Z,13.63
2023-03-16T00:24:03.889Z,10.55
2023-03-16T00:30:48.251Z,11.02
2023-03-16T00:37:33.007Z,10.87
2023-03-16T00:44:15.416Z,11.50
2023-03-16T00:50:57.643Z,13.68
2023-03-16T00:57:39.880Z,15.60
2023-03-16T01:04:23.254Z,24.77
2023-03-16T01:11:18.716Z,27.55
2023-03-16T01:18:01.860Z,24.52
2023-03-16T01:24:45.395Z,24.90
2023-03-16T01:31:29.315Z,27.52
2023-03-16T01:38:12.148Z,264.37
2023-03-16T01:45:02.162Z,364.20
2023-03-16T01:51:56.360Z,214.95
2023-03-16T01:58:42.997Z,305.48
2023-03-16T02:05:54.600Z,227.25
2023-03-16T02:12:39.501Z,63.70
2023-03-16T02:20:16.327Z,36.35
2023-03-16T02:27:08.290Z,72.03
2023-03-16T02:33:54.197Z,72.97
2023-03-16T02:40:38.784Z,109.10
2023-03-16T02:47:41.649Z,50.55
2023-03-16T02:54:24.645Z,52.00
2023-03-16T03:01:07.808Z,28.27
2023-03-16T03:07:51.475Z,14.80
2023-03-16T03:14:38.090Z,12.98
2023-03-16T03:21:21.613Z,10.38
2023-03-16T03:28:08.533Z,16.13
2023-03-16T03:34:51.338Z,10.68
2023-03-16T03:41:34.388Z,8.30
2023-03-16T03:48:18.557Z,13.13
2023-03-16T03:55:00.910Z,13.15
2023-03-16T04:01:43.503Z,16.67
2023-03-16T04:08:26.154Z,17.25
2023-03-16T04:15:10.003Z,14.55
2023-03-16T04:22:02.125Z,10.90
2023-03-16T04:28:44.761Z,18.58
2023-03-16T04:35:32.061Z,15.95
2023-03-16T04:42:14.642Z,14.15
2023-03-16T04:48:58.453Z,16.20
2023-03-16T05:02:27.242Z,10.10
2023-03-16T05:09:12.131Z,15.25
2023-03-16T05:15:55.561Z,11.95
2023-03-16T05:22:46.210Z,19.42
2023-03-16T05:29:36.507Z,13.27
2023-03-16T05:36:19.635Z,14.68
2023-03-16T05:43:05.496Z,14.85
2023-03-16T05:49:52.379Z,12.10
2023-03-16T05:56:40.654Z,12.85
2023-03-16T06:03:23.053Z,14.45
2023-03-16T06:10:08.007Z,19.63
2023-03-16T06:16:50.839Z,15.18
2023-03-16T06:23:34.145Z,14.20
2023-03-16T06:30:17.836Z,14.27
2023-03-16T06:37:00.348Z,17.13
2023-03-16T06:43:43.198Z,13.90
2023-03-16T06:50:27.776Z,12.75
2023-03-16T06:57:10.729Z,18.23
2023-03-16T07:03:53.100Z,17.90
2023-03-16T07:10:40.210Z,16.30
2023-03-16T07:17:22.458Z,17.85
2023-03-16T07:24:06.089Z,14.05
2023-03-16T07:31:02.836Z,17.02
2023-03-16T07:44:31.394Z,16.38
2023-03-16T07:51:14.909Z,17.70
2023-03-16T07:58:01.843Z,13.05
2023-03-16T08:04:48.672Z,15.40
2023-03-16T08:11:31.281Z,13.93
2023-03-16T08:18:17.731Z,19.17
2023-03-16T08:25:00.874Z,26.13
2023-03-16T08:31:43.299Z,17.98
2023-03-16T08:38:36.000Z,11.43
2023-03-16T08:45:23.521Z,21.70
2023-03-16T08:52:06.459Z,17.67
2023-03-16T08:58:50.488Z,18.33
2023-03-16T09:05:34.164Z,16.47
2023-03-16T09:12:16.411Z,18.90
2023-03-16T09:18:59.251Z,15.45
2023-03-16T09:25:41.769Z,18.65
2023-03-16T09:32:23.970Z,13.35
2023-03-16T09:39:06.256Z,10.88
2023-03-16T09:46:17.833Z,8.88
2023-03-16T09:53:34.301Z,13.38
2023-03-16T10:00:45.317Z,13.95
2023-03-16T10:07:52.281Z,10.32
2023-03-16T10:15:04.718Z,10.55
2023-03-16T10:21:49.137Z,8.82
2023-03-16T10:28:34.831Z,7.97
2023-03-16T10:35:31.847Z,6.30
2023-03-16T10:42:21.392Z,9.98
2023-03-16T10:49:03.640Z,7.13
2023-03-16T10:55:48.140Z,7.32
2023-03-16T11:02:35.416Z,16.17
2023-03-16T11:09:33.710Z,10.23
2023-03-16T11:16:33.230Z,5.43
2023-03-16T11:23:18.405Z,9.25
2023-03-16T11:30:25.439Z,5.32
2023-03-16T11:37:40.168Z,3.38
2023-03-16T11:45:12.651Z,9.60
2023-03-16T11:52:09.727Z,9.00
2023-03-16T12:00:01.412Z,7.18
2023-03-16T12:07:06.090Z,20.67
2023-03-16T12:14:09.165Z,6.78
2023-03-16T12:21:01.810Z,9.30
2023-03-16T12:27:45.541Z,6.32
2023-03-16T12:34:45.780Z,8.10
2023-03-16T12:42:06.461Z,6.15
2023-03-16T12:48:55.944Z,6.68
2023-03-16T12:55:38.353Z,8.63
2023-03-16T13:02:31.572Z,4.38
2023-03-16T13:09:27.408Z,5.82
2023-03-16T13:16:23.706Z,9.23
2023-03-16T13:23:18.451Z,8.35
2023-03-16T13:30:18.176Z,8.18
2023-03-16T13:37:01.710Z,10.77
2023-03-16T13:43:44.302Z,6.40
2023-03-16T13:50:26.996Z,13.60
2023-03-16T13:57:12.786Z,19.15
2023-03-16T14:04:08.802Z,10.05
2023-03-16T14:10:54.469Z,9.75
2023-03-16T14:17:36.680Z,6.22
2023-03-16T14:24:33.814Z,6.55
2023-03-16T14:31:20.907Z,5.75
2023-03-16T14:38:43.792Z,6.70
2023-03-16T14:45:34.076Z,4.68
2023-03-16T14:52:21.675Z,7.53
2023-03-16T14:59:03.996Z,8.40
2023-03-16T15:05:49.615Z,4.55
2023-03-16T15:12:32.084Z,5.18
2023-03-16T15:19:14.796Z,7.63
2023-03-16T15:26:02.811Z,10.75
2023-03-16T15:32:45.290Z,16.50
2023-03-16T15:39:28.337Z,16.67
2023-03-16T15:46:11.138Z,7.97
2023-03-16T15:52:59.986Z,8.07
2023-03-16T15:59:42.256Z,12.00
2023-03-16T16:06:24.791Z,13.55
2023-03-16T16:13:14.053Z,51.42
2023-03-16T16:19:56.880Z,10.32
2023-03-16T16:26:51.925Z,20.02
2023-03-16T16:33:37.245Z,18.98
2023-03-16T16:40:26.004Z,15.55
2023-03-16T16:47:23.768Z,21.08
2023-03-16T16:54:25.577Z,16.95
2023-03-16T17:01:23.660Z,11.65
2023-03-16T17:08:06.493Z,19.30
2023-03-16T17:14:49.907Z,21.88
2023-03-16T17:21:32.283Z,20.17
2023-03-16T17:28:16.817Z,24.92
2023-03-16T17:34:59.158Z,19.90
2023-03-16T17:41:42.020Z,22.10
2023-03-16T17:48:24.652Z,30.15
2023-03-16T17:55:08.019Z,41.47
2023-03-16T18:01:51.214Z,37.92
2023-03-16T18:08:35.957Z,38.83
2023-03-16T18:15:20.352Z,30.40
2023-03-16T18:22:02.540Z,35.47
2023-03-16T18:28:45.725Z,46.30
2023-03-16T18:35:28.395Z,54.50
2023-03-16T18:42:26.330Z,39.45
2023-03-16T18:49:36.035Z,46.55
2023-03-16T18:56:27.169Z,49.58
2023-03-16T19:03:31.786Z,41.28
2023-03-16T19:10:30.153Z,24.42
2023-03-16T19:17:12.380Z,28.75
2023-03-16T19:24:00.940Z,19.88
2023-03-16T19:30:43.761Z,19.17
2023-03-16T19:37:26.758Z,22.88
2023-03-16T19:44:22.420Z,19.73
2023-03-16T19:51:06.191Z,23.60
2023-03-16T19:57:54.125Z,24.42
2023-03-16T20:04:38.277Z,20.45
2023-03-16T20:11:30.199Z,23.48
2023-03-16T20:18:18.355Z,43.85
2023-03-16T20:25:05.207Z,55.95
2023-03-16T20:31:47.605Z,77.47
2023-03-16T20:38:30.016Z,72.07
2023-03-16T20:45:28.538Z,68.07
2023-03-16T20:52:17.781Z,45.78
2023-03-16T20:59:00.120Z,32.83
2023-03-16T21:05:42.801Z,52.28
2023-03-16T21:12:32.200Z,36.88
2023-03-16T21:19:21.210Z,32.60
2023-03-16T21:26:03.945Z,47.92
2023-03-16T21:32:46.497Z,41.28
2023-03-16T21:39:29.404Z,47.33
2023-03-16T21:46:21.411Z,49.10
2023-03-16T21:53:04.449Z,47.78
2023-03-16T21:59:47.156Z,36.20
2023-03-16T22:06:29.899Z,39.35
2023-03-16T22:13:12.129Z,38.30
2023-03-16T22:19:54.337Z,31.65
2023-03-16T22:26:37.484Z,35.08
2023-03-16T22:33:28.271Z,26.75
2023-03-16T22:40:18.561Z,48.88
2023-03-16T22:47:00.982Z,31.58
2023-03-16T22:53:45.920Z,31.02
2023-03-16T23:00:28.860Z,28.88
2023-03-16T23:07:15.040Z,27.92
2023-03-16T23:13:58.091Z,44.78
2023-03-16T23:20:40.541Z,70.32
2023-03-16T23:27:24.008Z,69.32
2023-03-16T23:34:16.406Z,66.07
2023-03-16T23:40:58.824Z,61.15
2023-03-16T23:47:41.249Z,54.50
2023-03-16T23:54:31.446Z,52.83
